Time;durP1;ratioP1;P1;durP2;ratioP2;P2;SDS_P1;SDS_P2;PMS_P1;PMS_P2;Temp;Humidity;BMP_temperature;BMP_pressure;BME280_temperature;BME280_humidity;BME280_pressure;Samples;Min_cycle;Max_cycle;Signal;HPM_P1;HPM_P2
2022/01/31 00:00:51;;;;;;;6.00;1.85;;;;;;;;;;6156341;23;20012;-70
2022/01/31 00:03:20;;;;;;;5.55;1.80;;;;;;;;;;6129571;23;20025;-71
2022/01/31 00:05:46;;;;;;;6.72;1.73;;;;;;;;;;6155552;23;20096;-71
2022/01/31 00:08:12;;;;;;;4.53;1.60;;;;;;;;;;6129976;23;20022;-70
2022/01/31 00:10:37;;;;;;;4.03;2.10;;;;;;;;;;6157466;23;20006;-71
2022/01/31 00:15:28;;;;;;;7.50;2.35;;;;;;;;;;6157536;23;20415;-71
2022/01/31 00:17:55;;;;;;;7.75;2.28;;;;;;;;;;6157605;23;19997;-71
2022/01/31 00:20:20;;;;;;;4.50;1.73;;;;;;;;;;6157316;23;20016;-71
2022/01/31 00:22:47;;;;;;;4.85;1.70;;;;;;;;;;6157676;23;20001;-71
2022/01/31 00:25:14;;;;;;;3.67;1.38;;;;;;;;;;6157673;23;20373;-71
2022/01/31 00:27:40;;;;;;;6.13;1.65;;;;;;;;;;6157908;23;20024;-70
2022/01/31 00:30:06;;;;;;;5.15;1.95;;;;;;;;;;6131283;23;20013;-71
2022/01/31 00:32:32;;;;;;;6.85;2.53;;;;;;;;;;6131438;23;20005;-70
2022/01/31 00:34:58;;;;;;;5.32;1.73;;;;;;;;;;6157188;23;20389;-70
2022/01/31 00:37:23;;;;;;;7.13;2.20;;;;;;;;;;6157432;23;20009;-70
2022/01/31 00:39:49;;;;;;;8.45;1.67;;;;;;;;;;6130512;23;20310;-70
2022/01/31 00:42:15;;;;;;;8.15;2.00;;;;;;;;;;6131100;23;20001;-70
2022/01/31 00:45:06;;;;;;;9.40;2.70;;;;;;;;;;6157542;23;20436;-70
2022/01/31 00:47:32;;;;;;;5.25;1.75;;;;;;;;;;6157291;23;20024;-70
2022/01/31 00:50:07;;;;;;;9.30;2.42;;;;;;;;;;6131121;23;20018;-70
2022/01/31 00:52:33;;;;;;;8.07;2.63;;;;;;;;;;6157361;23;20687;-71
2022/01/31 00:55:00;;;;;;;9.27;2.95;;;;;;;;;;6156973;23;20029;-71
2022/01/31 00:57:25;;;;;;;9.23;2.70;;;;;;;;;;6131198;23;20071;-68
2022/01/31 00:59:51;;;;;;;10.73;2.70;;;;;;;;;;6157043;23;20396;-68
2022/01/31 01:02:21;;;;;;;9.88;2.88;;;;;;;;;;6130856;23;20088;-68
2022/01/31 01:04:47;;;;;;;6.83;2.57;;;;;;;;;;6157457;23;20005;-70
2022/01/31 01:07:14;;;;;;;7.60;2.97;;;;;;;;;;6157265;23;20436;-70
2022/01/31 01:09:41;;;;;;;6.72;2.33;;;;;;;;;;6157457;23;20029;-70
2022/01/31 01:12:08;;;;;;;9.65;2.60;;;;;;;;;;6131199;23;20060;-70
2022/01/31 01:14:33;;;;;;;7.72;2.85;;;;;;;;;;6131318;23;20005;-71
2022/01/31 01:17:00;;;;;;;9.60;2.58;;;;;;;;;;6131098;23;20009;-71
2022/01/31 01:19:26;;;;;;;10.82;3.00;;;;;;;;;;6157346;23;20010;-70
2022/01/31 01:21:52;;;;;;;9.85;2.58;;;;;;;;;;6130637;23;20002;-68
2022/01/31 01:24:19;;;;;;;8.00;2.60;;;;;;;;;;6131041;23;20009;-72
2022/01/31 01:26:44;;;;;;;8.23;2.40;;;;;;;;;;6130786;23;20084;-70
2022/01/31 01:29:12;;;;;;;6.97;2.50;;;;;;;;;;6131115;23;20088;-70
2022/01/31 01:31:38;;;;;;;10.32;2.47;;;;;;;;;;6156887;23;20048;-70
2022/01/31 01:34:05;;;;;;;9.35;2.10;;;;;;;;;;6156800;23;20005;-71
2022/01/31 01:36:32;;;;;;;9.02;2.17;;;;;;;;;;6156640;23;19997;-70
2022/01/31 01:38:57;;;;;;;6.63;2.28;;;;;;;;;;6130482;23;20021;-71
2022/01/31 01:41:24;;;;;;;7.43;2.20;;;;;;;;;;6130741;23;20076;-71
2022/01/31 01:43:52;;;;;;;8.75;2.22;;;;;;;;;;6130732;23;20001;-70
2022/01/31 01:46:17;;;;;;;7.63;2.03;;;;;;;;;;6131304;23;20434;-71
2022/01/31 01:48:51;;;;;;;6.18;2.17;;;;;;;;;;6106855;23;20021;-70
2022/01/31 01:51:18;;;;;;;10.00;2.17;;;;;;;;;;6130648;23;20009;-71
2022/01/31 01:53:44;;;;;;;6.85;2.25;;;;;;;;;;6130397;23;20008;-71
2022/01/31 01:56:10;;;;;;;6.85;2.10;;;;;;;;;;6130461;23;20002;-70
2022/01/31 01:58:42;;;;;;;6.25;2.53;;;;;;;;;;6106673;23;20024;-71
2022/01/31 02:01:10;;;;;;;5.63;1.98;;;;;;;;;;6106488;23;20006;-71
2022/01/31 02:03:49;;;;;;;8.35;2.80;;;;;;;;;;6130400;23;20085;-71
2022/01/31 02:06:15;;;;;;;10.63;2.20;;;;;;;;;;6106417;23;20029;-67
2022/01/31 02:08:43;;;;;;;9.73;2.53;;;;;;;;;;6130729;23;19997;-71
2022/01/31 02:11:13;;;;;;;8.02;2.50;;;;;;;;;;6130688;23;20001;-71
2022/01/31 02:13:47;;;;;;;9.52;2.53;;;;;;;;;;6131261;23;20013;-71
2022/01/31 02:16:21;;;;;;;13.25;3.40;;;;;;;;;;6157217;23;20018;-72
2022/01/31 02:19:23;;;;;;;7.25;2.40;;;;;;;;;;6134111;23;20017;-70
2022/01/31 02:21:52;;;;;;;11.45;2.50;;;;;;;;;;6157324;23;20020;-66
2022/01/31 02:24:38;;;;;;;9.07;2.30;;;;;;;;;;6156701;23;20013;-67
2022/01/31 02:27:25;;;;;;;5.85;2.05;;;;;;;;;;6096250;23;20009;-67
2022/01/31 02:29:50;;;;;;;5.07;1.83;;;;;;;;;;6130372;23;20013;-67
2022/01/31 02:32:20;;;;;;;7.47;2.22;;;;;;;;;;6129785;23;20032;-68
2022/01/31 02:34:46;;;;;;;6.60;2.00;;;;;;;;;;6130209;23;20021;-68
2022/01/31 02:37:12;;;;;;;4.35;1.83;;;;;;;;;;6156784;23;20001;-68
2022/01/31 02:39:38;;;;;;;5.78;1.48;;;;;;;;;;6130006;23;20013;-68
2022/01/31 02:42:04;;;;;;;7.55;2.00;;;;;;;;;;6129906;23;19997;-68
2022/01/31 02:44:31;;;;;;;5.70;1.55;;;;;;;;;;6129669;23;20008;-67
2022/01/31 02:47:11;;;;;;;10.45;2.58;;;;;;;;;;6129903;23;20014;-68
2022/01/31 02:49:47;;;;;;;7.78;2.22;;;;;;;;;;6106316;23;20088;-67
2022/01/31 02:52:14;;;;;;;7.70;2.42;;;;;;;;;;6129915;23;20013;-68
2022/01/31 02:54:44;;;;;;;6.72;1.77;;;;;;;;;;6130431;23;20002;-72
2022/01/31 02:57:14;;;;;;;3.87;1.00;;;;;;;;;;6130097;23;20014;-71
2022/01/31 02:59:40;;;;;;;;;;;;;;;;;;6106558;23;20434;-68
2022/01/31 03:02:05;;;;;;;5.45;1.95;;;;;;;;;;6129662;23;19905;-68
2022/01/31 03:04:31;;;;;;;7.47;1.85;;;;;;;;;;6129716;23;20052;-68
2022/01/31 03:06:57;;;;;;;5.57;1.85;;;;;;;;;;6129946;23;20009;-68
2022/01/31 03:09:24;;;;;;;8.10;2.30;;;;;;;;;;6129808;23;20391;-68
2022/01/31 03:11:52;;;;;;;5.65;1.80;;;;;;;;;;6130271;23;20010;-69
2022/01/31 03:14:22;;;;;;;5.93;1.80;;;;;;;;;;6130210;23;20020;-68
2022/01/31 03:16:51;;;;;;;6.78;1.98;;;;;;;;;;6129888;23;20009;-68
2022/01/31 03:19:21;;;;;;;4.70;1.97;;;;;;;;;;6129936;23;20013;-69
2022/01/31 03:21:55;;;;;;;5.85;1.63;;;;;;;;;;6130003;23;20514;-69
2022/01/31 03:24:21;;;;;;;8.13;1.88;;;;;;;;;;6130078;23;20009;-69
2022/01/31 03:26:46;;;;;;;6.50;1.88;;;;;;;;;;6155907;23;20002;-68
2022/01/31 03:29:15;;;;;;;6.65;1.98;;;;;;;;;;6130096;23;20092;-68
2022/01/31 03:31:41;;;;;;;8.23;1.95;;;;;;;;;;6130076;23;20421;-68
2022/01/31 03:34:06;;;;;;;7.63;2.13;;;;;;;;;;6155988;23;20020;-69
2022/01/31 03:36:32;;;;;;;4.93;1.70;;;;;;;;;;6129607;23;20009;-69
2022/01/31 03:38:57;;;;;;;5.78;1.77;;;;;;;;;;6129553;23;20084;-69
2022/01/31 03:41:23;;;;;;;6.45;1.60;;;;;;;;;;6129678;23;20081;-70
2022/01/31 03:43:50;;;;;;;5.45;1.90;;;;;;;;;;6131506;23;20441;-71
2022/01/31 03:46:15;;;;;;;6.95;2.00;;;;;;;;;;6131739;23;20037;-71
2022/01/31 03:48:48;;;;;;;5.88;2.10;;;;;;;;;;6157872;23;20021;-71
2022/01/31 03:51:39;;;;;;;7.15;1.75;;;;;;;;;;6142783;23;20443;-70
2022/01/31 03:54:06;;;;;;;6.00;1.80;;;;;;;;;;6131371;23;20096;-70
2022/01/31 03:56:32;;;;;;;5.47;1.92;;;;;;;;;;6131543;23;20001;-71
2022/01/31 03:59:10;;;;;;;3.95;1.42;;;;;;;;;;6131179;23;20469;-70
2022/01/31 04:01:35;;;;;;;6.95;1.65;;;;;;;;;;6157663;23;20006;-71
2022/01/31 04:04:02;;;;;;;5.07;1.60;;;;;;;;;;6157928;23;20375;-70
2022/01/31 04:06:28;;;;;;;5.25;2.28;;;;;;;;;;6158013;23;20013;-70
2022/01/31 04:08:56;;;;;;;4.68;1.58;;;;;;;;;;6157631;23;19998;-70
2022/01/31 04:11:21;;;;;;;12.93;2.72;;;;;;;;;;6157588;23;20311;-70
2022/01/31 04:13:47;;;;;;;8.02;2.00;;;;;;;;;;6157536;23;20008;-70
2022/01/31 04:16:14;;;;;;;6.60;1.92;;;;;;;;;;6157749;23;20092;-70
2022/01/31 04:18:39;;;;;;;6.38;1.80;;;;;;;;;;6157966;23;20048;-70
2022/01/31 04:21:05;;;;;;;7.55;1.60;;;;;;;;;;6156900;23;20017;-69
2022/01/31 04:23:30;;;;;;;8.00;1.90;;;;;;;;;;6157857;23;20307;-69
2022/01/31 04:26:03;;;;;;;8.32;2.35;;;;;;;;;;6157607;23;20010;-69
2022/01/31 04:28:39;;;;;;;6.95;1.85;;;;;;;;;;6157601;23;20013;-69
2022/01/31 04:33:48;;;;;;;7.32;2.10;;;;;;;;;;6157593;23;20022;-69
2022/01/31 04:36:16;;;;;;;9.88;2.25;;;;;;;;;;6131550;23;20088;-69
2022/01/31 04:38:42;;;;;;;8.65;2.70;;;;;;;;;;6157759;23;20093;-69
2022/01/31 04:41:08;;;;;;;8.82;2.33;;;;;;;;;;6157575;23;20005;-69
2022/01/31 04:43:34;;;;;;;7.55;2.10;;;;;;;;;;6157223;23;20010;-69
2022/01/31 04:46:02;;;;;;;7.35;2.30;;;;;;;;;;6157213;23;20012;-68
2022/01/31 04:48:28;;;;;;;5.35;2.03;;;;;;;;;;6157091;23;20025;-67
2022/01/31 04:50:53;;;;;;;8.15;2.28;;;;;;;;;;6156961;23;20345;-69
2022/01/31 04:53:19;;;;;;;7.55;2.33;;;;;;;;;;6157014;23;20046;-70
2022/01/31 04:55:46;;;;;;;9.45;2.22;;;;;;;;;;6155290;23;20029;-69
2022/01/31 04:58:11;;;;;;;8.10;2.78;;;;;;;;;;6155243;23;20020;-68
2022/01/31 05:00:40;;;;;;;9.23;2.47;;;;;;;;;;6154996;23;20006;-69
2022/01/31 05:03:12;;;;;;;8.32;2.50;;;;;;;;;;6154885;23;20041;-69
2022/01/31 05:05:37;;;;;;;8.07;2.53;;;;;;;;;;6151580;23;20013;-71
2022/01/31 05:08:03;;;;;;;9.95;2.63;;;;;;;;;;6154369;23;20048;-71
2022/01/31 05:10:28;;;;;;;6.22;2.20;;;;;;;;;;6152863;23;20099;-72
2022/01/31 05:12:54;;;;;;;8.88;2.53;;;;;;;;;;6153977;23;20056;-71
2022/01/31 05:15:20;;;;;;;8.88;3.03;;;;;;;;;;6154449;23;20505;-71
2022/01/31 05:17:49;;;;;;;8.55;2.58;;;;;;;;;;6154663;23;20477;-71
2022/01/31 05:20:14;;;;;;;9.02;3.00;;;;;;;;;;6153726;23;20022;-71
2022/01/31 05:22:40;;;;;;;10.32;2.95;;;;;;;;;;6154678;23;20020;-71
2022/01/31 05:25:06;;;;;;;7.13;3.00;;;;;;;;;;6153547;23;20768;-71
2022/01/31 05:27:31;;;;;;;10.13;2.92;;;;;;;;;;6153882;23;20032;-71
2022/01/31 05:29:59;;;;;;;7.70;2.38;;;;;;;;;;6128597;23;20021;-71
2022/01/31 05:32:24;;;;;;;9.85;2.95;;;;;;;;;;6128205;23;20001;-71
2022/01/31 05:34:49;;;;;;;6.93;2.30;;;;;;;;;;6154376;23;20029;-71
2022/01/31 05:37:15;;;;;;;8.40;2.65;;;;;;;;;;6153551;23;20005;-71
2022/01/31 05:39:42;;;;;;;8.77;2.40;;;;;;;;;;6152412;23;20018;-68
2022/01/31 05:42:08;;;;;;;9.30;2.80;;;;;;;;;;6151998;23;20002;-68
2022/01/31 05:44:36;;;;;;;9.10;2.75;;;;;;;;;;6151571;23;20405;-68
2022/01/31 05:47:02;;;;;;;9.52;3.03;;;;;;;;;;6151639;23;20024;-68
2022/01/31 05:49:28;;;;;;;8.23;2.75;;;;;;;;;;6152439;23;20026;-68
2022/01/31 05:52:04;;;;;;;10.25;3.00;;;;;;;;;;6152304;23;20012;-67
2022/01/31 05:54:29;;;;;;;8.70;2.88;;;;;;;;;;6151426;23;20488;-67
2022/01/31 05:56:55;;;;;;;6.75;3.13;;;;;;;;;;6152448;23;20009;-67
2022/01/31 05:59:21;;;;;;;8.25;3.25;;;;;;;;;;6152030;23;20021;-67
2022/01/31 06:01:46;;;;;;;9.57;3.08;;;;;;;;;;6152128;23;20009;-69
2022/01/31 06:04:13;;;;;;;11.38;3.30;;;;;;;;;;6125502;23;20009;-69
2022/01/31 06:06:38;;;;;;;11.23;3.78;;;;;;;;;;6151176;23;20814;-68
2022/01/31 06:09:04;;;;;;;10.82;3.67;;;;;;;;;;6152161;23;20036;-68
2022/01/31 06:11:31;;;;;;;7.45;3.28;;;;;;;;;;6151659;23;19998;-68
2022/01/31 06:14:01;;;;;;;14.07;4.20;;;;;;;;;;6151147;23;20505;-69
2022/01/31 06:16:27;;;;;;;7.10;3.43;;;;;;;;;;6151630;23;20008;-68
2022/01/31 06:18:52;;;;;;;14.98;4.57;;;;;;;;;;6152663;23;20068;-68
2022/01/31 06:21:18;;;;;;;12.70;4.00;;;;;;;;;;6152643;23;19998;-67
2022/01/31 06:23:43;;;;;;;12.90;4.43;;;;;;;;;;6152399;23;20092;-67
2022/01/31 06:26:09;;;;;;;12.35;4.15;;;;;;;;;;6152548;23;20012;-67
2022/01/31 06:28:35;;;;;;;11.45;3.95;;;;;;;;;;6125847;23;20013;-67
2022/01/31 06:31:20;;;;;;;11.43;4.07;;;;;;;;;;6152309;23;20629;-67
2022/01/31 06:33:47;;;;;;;14.43;5.28;;;;;;;;;;6152762;23;20060;-71
2022/01/31 06:36:12;;;;;;;19.10;6.72;;;;;;;;;;6153140;23;20423;-72
2022/01/31 06:38:40;;;;;;;14.38;6.38;;;;;;;;;;6154398;23;20012;-71
2022/01/31 06:41:13;;;;;;;15.07;5.88;;;;;;;;;;6155628;23;20002;-71
2022/01/31 06:43:40;;;;;;;14.02;4.65;;;;;;;;;;6156048;23;20002;-71
2022/01/31 06:46:06;;;;;;;11.50;3.85;;;;;;;;;;6156503;23;20029;-71
2022/01/31 06:48:34;;;;;;;10.45;4.15;;;;;;;;;;6155964;23;20342;-71
2022/01/31 06:51:00;;;;;;;8.35;3.38;;;;;;;;;;6156142;23;20016;-71
2022/01/31 06:53:28;;;;;;;8.85;3.15;;;;;;;;;;6156288;23;20009;-72
2022/01/31 06:55:54;;;;;;;9.85;3.28;;;;;;;;;;6156928;23;20007;-71
2022/01/31 06:58:20;;;;;;;10.60;3.92;;;;;;;;;;6156090;23;20006;-71
2022/01/31 07:00:46;;;;;;;10.90;3.50;;;;;;;;;;6156656;23;20006;-71
2022/01/31 07:03:13;;;;;;;13.48;4.03;;;;;;;;;;6156572;23;20005;-71
2022/01/31 07:05:45;;;;;;;9.82;3.83;;;;;;;;;;6156796;23;20364;-72
2022/01/31 07:08:11;;;;;;;13.48;4.07;;;;;;;;;;6155783;23;20005;-71
2022/01/31 07:10:38;;;;;;;11.43;3.95;;;;;;;;;;6155695;23;20008;-71
2022/01/31 07:13:11;;;;;;;10.38;3.35;;;;;;;;;;6155784;23;20010;-71
2022/01/31 07:15:37;;;;;;;12.30;4.63;;;;;;;;;;6155775;23;20096;-71
2022/01/31 07:18:03;;;;;;;16.13;5.00;;;;;;;;;;6156177;23;20091;-71
2022/01/31 07:20:37;;;;;;;19.17;4.90;;;;;;;;;;6157504;23;20041;-71
2022/01/31 07:23:09;;;;;;;19.48;6.13;;;;;;;;;;6157797;23;20374;-71
2022/01/31 07:25:35;;;;;;;15.90;4.85;;;;;;;;;;6157715;23;20012;-71
2022/01/31 07:28:04;;;;;;;18.25;4.90;;;;;;;;;;6157636;23;19997;-71
2022/01/31 07:30:30;;;;;;;17.33;5.35;;;;;;;;;;6157656;23;20005;-71
2022/01/31 07:32:55;;;;;;;14.52;5.35;;;;;;;;;;6157721;23;20012;-71
2022/01/31 07:35:21;;;;;;;15.32;4.72;;;;;;;;;;6157646;23;20009;-71
2022/01/31 07:37:46;;;;;;;13.75;5.97;;;;;;;;;;6157813;23;20081;-71
2022/01/31 07:40:12;;;;;;;15.05;5.15;;;;;;;;;;6157510;23;20012;-71
2022/01/31 07:42:38;;;;;;;14.23;5.47;;;;;;;;;;6157490;23;20054;-71
2022/01/31 07:45:03;;;;;;;16.25;5.38;;;;;;;;;;6157521;23;20005;-71
2022/01/31 07:47:29;;;;;;;18.48;5.43;;;;;;;;;;6157183;23;20060;-71
2022/01/31 07:49:55;;;;;;;18.40;6.60;;;;;;;;;;6157700;23;20009;-71
2022/01/31 07:52:20;;;;;;;20.73;7.00;;;;;;;;;;6157422;23;20080;-71
2022/01/31 07:54:46;;;;;;;20.75;6.22;;;;;;;;;;6157543;23;20048;-71
2022/01/31 07:57:11;;;;;;;15.90;4.75;;;;;;;;;;6157355;23;20005;-71
2022/01/31 07:59:37;;;;;;;12.10;4.68;;;;;;;;;;6157183;23;20018;-71
2022/01/31 08:02:02;;;;;;;12.40;4.85;;;;;;;;;;6156924;23;20044;-71
2022/01/31 08:04:28;;;;;;;12.98;5.13;;;;;;;;;;6157602;23;20098;-71
2022/01/31 08:06:53;;;;;;;13.82;5.35;;;;;;;;;;6157420;23;19994;-71
2022/01/31 08:09:18;;;;;;;12.73;5.07;;;;;;;;;;6157318;23;20036;-71
2022/01/31 08:11:44;;;;;;;10.32;4.32;;;;;;;;;;6157231;23;19998;-71
2022/01/31 08:14:11;;;;;;;13.10;4.18;;;;;;;;;;6157377;23;20012;-71
2022/01/31 08:16:37;;;;;;;13.43;4.47;;;;;;;;;;6157469;23;20053;-71
2022/01/31 08:19:05;;;;;;;18.15;6.25;;;;;;;;;;6157282;23;20005;-72
2022/01/31 08:21:30;;;;;;;19.52;5.55;;;;;;;;;;6157174;23;19997;-71
2022/01/31 08:23:56;;;;;;;13.25;5.00;;;;;;;;;;6157179;23;20028;-71
2022/01/31 08:26:21;;;;;;;12.50;4.72;;;;;;;;;;6157044;23;19994;-71
2022/01/31 08:31:20;;;;;;;13.02;4.20;;;;;;;;;;6156702;23;20089;-71
2022/01/31 08:33:50;;;;;;;18.23;5.82;;;;;;;;;;6157219;23;20009;-71
2022/01/31 08:36:16;;;;;;;13.77;4.90;;;;;;;;;;6157254;23;20009;-71
2022/01/31 08:38:42;;;;;;;12.63;4.55;;;;;;;;;;6157150;23;20001;-71
2022/01/31 08:41:08;;;;;;;13.88;5.05;;;;;;;;;;6156741;23;20104;-71
2022/01/31 08:43:35;;;;;;;7.10;3.78;;;;;;;;;;6157044;23;20083;-71
2022/01/31 08:46:00;;;;;;;18.20;5.55;;;;;;;;;;6157027;23;20006;-71
2022/01/31 08:48:27;;;;;;;16.35;6.00;;;;;;;;;;6156518;23;20028;-71
2022/01/31 08:50:53;;;;;;;14.43;5.38;;;;;;;;;;6157036;23;20009;-71
2022/01/31 08:53:19;;;;;;;11.32;5.15;;;;;;;;;;6156891;23;20080;-71
2022/01/31 08:55:52;;;;;;;16.75;5.43;;;;;;;;;;6156599;23;20048;-71
2022/01/31 08:58:18;;;;;;;12.45;4.75;;;;;;;;;;6156957;23;20013;-71
2022/01/31 09:00:47;;;;;;;15.30;5.35;;;;;;;;;;6157009;23;20008;-71
2022/01/31 09:05:39;;;;;;;18.67;5.43;;;;;;;;;;6130511;23;20080;-71
2022/01/31 09:08:05;;;;;;;15.13;5.43;;;;;;;;;;6156634;23;20437;-71
2022/01/31 09:10:30;;;;;;;14.55;5.68;;;;;;;;;;6156690;23;20036;-72
2022/01/31 09:12:56;;;;;;;14.40;5.07;;;;;;;;;;6156797;23;20005;-71
2022/01/31 09:15:22;;;;;;;15.20;4.45;;;;;;;;;;6156667;23;20422;-71
2022/01/31 09:17:48;;;;;;;12.32;4.03;;;;;;;;;;6156651;23;20104;-71
2022/01/31 09:20:13;;;;;;;12.98;4.97;;;;;;;;;;6156578;23;20010;-71
2022/01/31 09:22:39;;;;;;;14.20;4.97;;;;;;;;;;6156713;23;20426;-72
2022/01/31 09:25:04;;;;;;;8.65;4.18;;;;;;;;;;6156717;23;20001;-71
2022/01/31 09:27:30;;;;;;;8.93;4.10;;;;;;;;;;6156736;23;20005;-71
2022/01/31 09:29:55;;;;;;;16.25;4.65;;;;;;;;;;6156769;23;20001;-72
2022/01/31 09:32:24;;;;;;;12.10;4.22;;;;;;;;;;6156567;23;20009;-71
2022/01/31 09:34:49;;;;;;;14.25;4.32;;;;;;;;;;6156569;23;19997;-71
2022/01/31 09:37:15;;;;;;;12.85;4.47;;;;;;;;;;6156600;23;20006;-71
2022/01/31 09:39:42;;;;;;;12.68;5.00;;;;;;;;;;6156516;23;20418;-71
2022/01/31 09:42:12;;;;;;;13.98;4.80;;;;;;;;;;6156194;23;20020;-71
2022/01/31 09:44:48;;;;;;;12.27;5.18;;;;;;;;;;6130238;23;20160;-71
2022/01/31 09:47:34;;;;;;;15.63;5.60;;;;;;;;;;6155869;23;20013;-71
2022/01/31 09:50:00;;;;;;;13.07;4.47;;;;;;;;;;6156550;23;20017;-71
2022/01/31 09:52:26;;;;;;;13.60;5.38;;;;;;;;;;6156806;23;20014;-71
2022/01/31 09:54:51;;;;;;;16.60;5.72;;;;;;;;;;6156805;23;20434;-70
2022/01/31 09:57:18;;;;;;;19.65;7.68;;;;;;;;;;6156993;23;20318;-70
2022/01/31 09:59:43;;;;;;;22.92;9.77;;;;;;;;;;6156572;23;20096;-70
2022/01/31 10:02:10;;;;;;;16.10;7.32;;;;;;;;;;6156384;23;20024;-70
2022/01/31 10:04:36;;;;;;;20.20;8.00;;;;;;;;;;6156221;23;20006;-70
2022/01/31 10:07:02;;;;;;;16.45;5.97;;;;;;;;;;6156131;23;20101;-70
2022/01/31 10:09:31;;;;;;;19.85;7.57;;;;;;;;;;6156207;23;20020;-70
2022/01/31 10:12:04;;;;;;;8.23;4.32;;;;;;;;;;6156275;23;20053;-70
2022/01/31 10:17:24;;;;;;;22.58;8.25;;;;;;;;;;6156207;23;20534;-70
2022/01/31 10:19:50;;;;;;;19.65;7.88;;;;;;;;;;6155924;23;20101;-70
2022/01/31 10:22:16;;;;;;;20.98;8.20;;;;;;;;;;6156020;23;20021;-70
2022/01/31 10:24:44;;;;;;;26.38;9.80;;;;;;;;;;6155980;23;20001;-71
2022/01/31 10:27:11;;;;;;;20.08;8.43;;;;;;;;;;6157016;23;19993;-71
2022/01/31 10:29:40;;;;;;;18.33;7.30;;;;;;;;;;6156110;23;20009;-71
2022/01/31 10:32:08;;;;;;;21.85;8.75;;;;;;;;;;6130197;23;20007;-70
2022/01/31 10:34:44;;;;;;;17.33;7.63;;;;;;;;;;6156340;23;20014;-70
2022/01/31 10:37:13;;;;;;;21.10;7.57;;;;;;;;;;6156257;23;20434;-70
2022/01/31 10:51:10;;;;;;;;;;;;;;;;;;6130165;23;20014;-71
2022/01/31 10:53:38;;;;;;;19.10;7.53;;;;;;;;;;6155590;23;19904;-71
2022/01/31 10:56:03;;;;;;;24.38;8.65;;;;;;;;;;6129812;23;20005;-71
2022/01/31 10:58:30;;;;;;;28.05;9.98;;;;;;;;;;6155811;23;20319;-71
2022/01/31 11:01:10;;;;;;;25.27;10.63;;;;;;;;;;6155740;23;20450;-70
2022/01/31 11:03:35;;;;;;;22.10;10.03;;;;;;;;;;6155944;23;20013;-70
2022/01/31 11:06:10;;;;;;;25.63;8.77;;;;;;;;;;6155772;23;20229;-70
2022/01/31 11:08:38;;;;;;;23.77;10.07;;;;;;;;;;6155806;23;20382;-71
2022/01/31 11:11:03;;;;;;;26.55;9.63;;;;;;;;;;6155753;23;20383;-71
2022/01/31 11:13:31;;;;;;;30.30;11.20;;;;;;;;;;6155768;23;20048;-71
2022/01/31 11:15:56;;;;;;;25.50;9.95;;;;;;;;;;6155891;23;20334;-70
2022/01/31 11:18:23;;;;;;;27.27;10.70;;;;;;;;;;6155855;23;20036;-71
2022/01/31 11:20:53;;;;;;;23.08;9.90;;;;;;;;;;6155591;23;19998;-71
2022/01/31 11:23:21;;;;;;;25.30;9.55;;;;;;;;;;6155828;23;20005;-71
2022/01/31 11:25:50;;;;;;;20.00;8.57;;;;;;;;;;6155731;23;20448;-71
2022/01/31 11:28:15;;;;;;;29.25;10.30;;;;;;;;;;6129803;23;20053;-71
2022/01/31 11:30:41;;;;;;;23.67;10.20;;;;;;;;;;6155591;23;20009;-71
2022/01/31 11:33:07;;;;;;;26.52;10.43;;;;;;;;;;6155505;23;20017;-72
2022/01/31 11:35:32;;;;;;;33.58;13.18;;;;;;;;;;6155679;23;20092;-71
2022/01/31 11:37:58;;;;;;;31.42;10.75;;;;;;;;;;6155553;23;20469;-71
2022/01/31 11:40:24;;;;;;;32.13;13.25;;;;;;;;;;6129555;23;20054;-71
2022/01/31 11:42:50;;;;;;;28.13;11.32;;;;;;;;;;6155532;23;20037;-71
2022/01/31 11:45:20;;;;;;;24.52;10.30;;;;;;;;;;6155516;23;19994;-71
2022/01/31 11:47:52;;;;;;;25.15;11.05;;;;;;;;;;6155316;23;20002;-71
2022/01/31 11:50:19;;;;;;;29.17;11.32;;;;;;;;;;6155609;23;20492;-71
2022/01/31 11:52:47;;;;;;;29.73;11.13;;;;;;;;;;6155615;23;20072;-71
2022/01/31 11:55:14;;;;;;;27.75;10.27;;;;;;;;;;6155626;23;20005;-71
2022/01/31 11:57:39;;;;;;;27.67;9.93;;;;;;;;;;6129548;23;20101;-71
2022/01/31 12:00:12;;;;;;;27.20;11.35;;;;;;;;;;6155410;23;20042;-70
2022/01/31 12:02:42;;;;;;;33.03;13.13;;;;;;;;;;6155459;23;20020;-70
2022/01/31 12:05:10;;;;;;;25.35;10.15;;;;;;;;;;6156848;23;20016;-70
2022/01/31 12:07:40;;;;;;;31.17;11.95;;;;;;;;;;6157249;23;19998;-70
2022/01/31 12:10:18;;;;;;;32.35;12.68;;;;;;;;;;6157270;23;20513;-71
2022/01/31 12:12:57;;;;;;;32.15;11.82;;;;;;;;;;6157231;23;20323;-71
2022/01/31 12:18:28;;;;;;;28.05;11.18;;;;;;;;;;6157531;23;20064;-70
2022/01/31 12:23:39;;;;;;;26.02;9.95;;;;;;;;;;6131099;23;20060;-71
2022/01/31 12:26:23;;;;;;;24.40;10.63;;;;;;;;;;6157058;23;20362;-70
2022/01/31 12:28:56;;;;;;;25.83;10.55;;;;;;;;;;6157146;23;20526;-70
2022/01/31 12:31:34;;;;;;;24.85;9.63;;;;;;;;;;6157219;23;20064;-70
2022/01/31 12:34:00;;;;;;;30.95;10.98;;;;;;;;;;6156623;23;20005;-70
2022/01/31 12:36:31;;;;;;;24.08;9.48;;;;;;;;;;6130942;23;20152;-70
2022/01/31 12:38:57;;;;;;;26.63;10.48;;;;;;;;;;6157257;23;20006;-70
2022/01/31 12:41:32;;;;;;;36.83;14.40;;;;;;;;;;6156844;23;20080;-72
2022/01/31 12:44:16;;;;;;;62.10;21.23;;;;;;;;;;6157049;23;20450;-71
2022/01/31 12:46:51;;;;;;;37.38;13.23;;;;;;;;;;6156958;23;20461;-70
2022/01/31 12:49:18;;;;;;;38.17;14.75;;;;;;;;;;6156376;23;20450;-70
2022/01/31 12:51:57;;;;;;;34.13;13.65;;;;;;;;;;6156925;23;20021;-70
2022/01/31 12:54:23;;;;;;;32.58;13.30;;;;;;;;;;6157007;23;20084;-70
2022/01/31 12:56:50;;;;;;;30.50;12.32;;;;;;;;;;6157034;23;20426;-70
2022/01/31 12:59:21;;;;;;;32.63;12.43;;;;;;;;;;6156752;23;20001;-71
2022/01/31 13:01:48;;;;;;;32.70;12.77;;;;;;;;;;6130747;23;20025;-71
2022/01/31 13:04:14;;;;;;;42.80;16.52;;;;;;;;;;6156812;23;20033;-70
2022/01/31 13:06:48;;;;;;;33.33;12.70;;;;;;;;;;6130561;23;20056;-70
2022/01/31 13:09:17;;;;;;;30.83;11.57;;;;;;;;;;6156650;23;20005;-70
2022/01/31 13:11:44;;;;;;;29.30;11.18;;;;;;;;;;6156603;23;20418;-70
2022/01/31 13:14:15;;;;;;;31.85;12.05;;;;;;;;;;6156704;23;20008;-70
2022/01/31 13:16:40;;;;;;;;;;;;;;;;;;6157038;23;20012;-71
2022/01/31 13:19:10;;;;;;;30.27;11.25;;;;;;;;;;6156501;23;19976;-71
2022/01/31 13:21:37;;;;;;;29.88;11.57;;;;;;;;;;6156591;23;20029;-71
2022/01/31 13:24:02;;;;;;;29.67;11.13;;;;;;;;;;6156739;23;20008;-71
2022/01/31 13:26:28;;;;;;;29.23;11.98;;;;;;;;;;6156723;23;20005;-71
2022/01/31 13:28:53;;;;;;;25.90;11.98;;;;;;;;;;6131038;23;20001;-71
2022/01/31 13:31:20;;;;;;;28.75;12.45;;;;;;;;;;6132976;23;20010;-71
2022/01/31 13:33:46;;;;;;;35.33;12.90;;;;;;;;;;6156304;23;20445;-71
2022/01/31 13:36:11;;;;;;;29.50;12.32;;;;;;;;;;6157042;23;20012;-70
2022/01/31 13:38:40;;;;;;;32.95;12.23;;;;;;;;;;6130771;23;20013;-70
2022/01/31 13:41:07;;;;;;;36.97;13.70;;;;;;;;;;6106196;23;20426;-70
2022/01/31 13:43:36;;;;;;;34.72;14.43;;;;;;;;;;6156980;23;20003;-69
2022/01/31 13:46:09;;;;;;;37.15;13.57;;;;;;;;;;6157061;23;20005;-69
2022/01/31 13:49:17;;;;;;;34.58;12.80;;;;;;;;;;6156321;23;20024;-69
2022/01/31 13:51:47;;;;;;;26.42;10.02;;;;;;;;;;6112264;23;20017;-65
2022/01/31 13:54:15;;;;;;;33.13;11.00;;;;;;;;;;6156479;23;20005;-65
2022/01/31 13:56:51;;;;;;;27.27;9.77;;;;;;;;;;6156601;23;19997;-65
2022/01/31 13:59:17;;;;;;;27.83;10.43;;;;;;;;;;6156548;23;20010;-65
2022/01/31 14:01:43;;;;;;;24.30;9.48;;;;;;;;;;6156322;23;19994;-65
2022/01/31 14:04:12;;;;;;;25.35;9.52;;;;;;;;;;6130332;23;20102;-65
2022/01/31 14:06:38;;;;;;;24.60;9.20;;;;;;;;;;6156220;23;20011;-65
2022/01/31 14:09:06;;;;;;;28.88;9.35;;;;;;;;;;6156360;23;20012;-65
2022/01/31 14:11:36;;;;;;;25.20;9.30;;;;;;;;;;6156215;23;20366;-65
2022/01/31 14:14:02;;;;;;;19.15;8.05;;;;;;;;;;6156142;23;20013;-65
2022/01/31 14:16:28;;;;;;;23.67;9.10;;;;;;;;;;6156132;23;20003;-65
2022/01/31 14:19:14;;;;;;;24.23;8.75;;;;;;;;;;6156142;23;20338;-65
2022/01/31 14:21:40;;;;;;;21.60;8.70;;;;;;;;;;6155567;23;20027;-65
2022/01/31 14:24:06;;;;;;;20.08;8.48;;;;;;;;;;6155666;23;20002;-66
2022/01/31 14:26:42;;;;;;;21.98;8.50;;;;;;;;;;6156312;23;20016;-65
2022/01/31 14:29:14;;;;;;;22.80;8.48;;;;;;;;;;6155589;23;20005;-65
2022/01/31 14:31:41;;;;;;;25.92;9.95;;;;;;;;;;6155954;23;20427;-65
2022/01/31 14:34:10;;;;;;;26.65;9.98;;;;;;;;;;6155896;23;20001;-65
2022/01/31 14:36:40;;;;;;;26.67;9.55;;;;;;;;;;6155886;23;20430;-65
2022/01/31 14:42:04;;;;;;;27.33;10.98;;;;;;;;;;6095262;23;20103;-65
2022/01/31 14:47:24;;;;;;;26.63;11.82;;;;;;;;;;6155915;23;20339;-65
2022/01/31 14:49:51;;;;;;;29.95;11.63;;;;;;;;;;6155616;23;20026;-65
2022/01/31 14:52:16;;;;;;;32.20;12.15;;;;;;;;;;6155704;23;20014;-65
2022/01/31 14:54:42;;;;;;;26.95;11.73;;;;;;;;;;6156056;23;20015;-65
2022/01/31 14:57:08;;;;;;;27.67;11.38;;;;;;;;;;6155982;23;20001;-65
2022/01/31 14:59:34;;;;;;;25.75;10.70;;;;;;;;;;6155721;23;20060;-65
2022/01/31 15:02:00;;;;;;;29.50;10.48;;;;;;;;;;6155742;23;20420;-65
2022/01/31 15:04:26;;;;;;;30.00;10.88;;;;;;;;;;6129553;23;20009;-65
2022/01/31 15:06:51;;;;;;;26.83;11.02;;;;;;;;;;6129695;23;20093;-65
2022/01/31 15:09:17;;;;;;;29.95;11.38;;;;;;;;;;6155795;23;20033;-65
2022/01/31 15:11:43;;;;;;;29.80;11.75;;;;;;;;;;6155404;23;20499;-65
2022/01/31 15:14:09;;;;;;;29.23;11.93;;;;;;;;;;6155913;23;20427;-65